Time;durP1;ratioP1;P1;durP2;ratioP2;P2;SDS_P1;SDS_P2;PMS_P1;PMS_P2;Temp;Humidity;BMP_temperature;BMP_pressure;BME280_temperature;BME280_humidity;BME280_pressure;Samples;Min_cycle;Max_cycle;Signal;HPM_P1;HPM_P2
2022/02/02 00:00:10;;;;;;;22.60;11.30;;;;;;;-2.22;63.79;141736.08;1709622;84;21075;-55
2022/02/02 00:02:46;;;;;;;24.32;12.53;;;;;;;-2.24;64.09;141731.11;1710615;84;21062;-54
2022/02/02 00:05:22;;;;;;;22.17;10.50;;;;;;;-2.29;64.30;141718.70;1708962;84;21039;-54
2022/02/02 00:13:05;;;;;;;27.85;12.68;;;;;;;-2.34;64.98;141706.31;1710682;84;21035;-55
2022/02/02 00:20:53;;;;;;;25.25;11.55;;;;;;;-2.32;65.54;141711.28;1710666;84;21107;-55
2022/02/02 00:23:14;;;;;;;26.70;11.70;;;;;;;-2.33;65.62;141708.81;1706848;84;21015;-56
2022/02/02 00:25:46;;;;;;;22.60;10.40;;;;;;;-2.41;65.86;141690.22;1709383;84;21193;-53
2022/02/02 00:28:06;;;;;;;27.13;10.25;;;;;;;-2.44;66.09;141684.02;1708621;84;21050;-53
2022/02/02 00:30:37;;;;;;;20.85;10.65;;;;;;;-2.44;66.22;141684.02;1699909;84;21107;-54
2022/02/02 00:33:19;;;;;;;24.02;10.80;;;;;;;-2.48;66.53;141674.08;1727606;83;21038;-53
2022/02/02 00:35:43;;;;;;;23.20;11.15;;;;;;;-2.52;66.67;141664.19;1688640;85;21012;-53
2022/02/02 00:38:07;;;;;;;26.57;13.62;;;;;;;-2.57;66.80;141651.78;1756176;81;21014;-53
2022/02/02 00:40:34;;;;;;;28.32;12.80;;;;;;;-2.62;67.07;141639.37;1756348;82;21003;-52
2022/02/02 00:43:01;;;;;;;25.57;12.53;;;;;;;-2.62;67.17;141640.61;1756363;82;21018;-52
2022/02/02 00:45:32;;;;;;;27.80;12.75;;;;;;;-2.64;67.32;141634.41;1756335;81;20975;-51
2022/02/02 00:47:56;;;;;;;32.55;13.30;;;;;;;-2.68;67.41;141624.47;1756094;81;21007;-53
2022/02/02 00:50:26;;;;;;;31.00;13.60;;;;;;;-2.71;67.50;141618.28;1756398;81;21492;-51
2022/02/02 00:52:53;;;;;;;26.82;11.15;;;;;;;-2.70;67.56;141619.50;1756191;82;21493;-51
2022/02/02 00:55:20;;;;;;;24.72;11.68;;;;;;;-2.71;67.61;141617.05;1756561;81;20971;-53
2022/02/02 00:57:47;;;;;;;24.85;12.68;;;;;;;-2.72;67.61;141615.81;1756322;82;21053;-51
2022/02/02 01:00:15;;;;;;;21.30;11.35;;;;;;;-2.75;67.65;141607.11;1756656;81;21150;-53
2022/02/02 01:02:42;;;;;;;24.57;10.82;;;;;;;-2.77;67.77;141602.14;1756723;81;20971;-53
2022/02/02 01:05:09;;;;;;;22.75;11.08;;;;;;;-2.80;67.75;141594.70;1756561;82;21034;-53
2022/02/02 01:12:48;;;;;;;24.52;11.55;;;;;;;-2.87;67.82;141579.84;1756818;81;21073;-52
2022/02/02 01:18:15;;;;;;;24.95;10.72;;;;;;;-2.92;67.86;141567.45;1756652;82;20998;-53
2022/02/02 01:20:50;;;;;;;22.17;11.33;;;;;;;-2.97;68.07;141555.06;1752158;82;21005;-51
2022/02/02 01:28:39;;;;;;;25.97;11.97;;;;;;;-3.15;68.57;141510.45;1756397;81;20987;-52
2022/02/02 01:31:07;;;;;;;27.85;11.50;;;;;;;-3.20;68.77;141498.06;1747172;82;21034;-52
2022/02/02 01:33:34;;;;;;;23.25;11.30;;;;;;;-3.22;68.89;141493.09;1746772;82;21014;-56
2022/02/02 01:36:05;;;;;;;23.62;10.68;;;;;;;-3.23;68.95;141490.59;1746711;82;21097;-53
2022/02/02 01:38:34;;;;;;;22.07;10.15;;;;;;;-3.24;68.95;141489.36;1746913;82;21543;-53
2022/02/02 01:41:11;;;;;;;22.35;12.18;;;;;;;-3.22;68.94;141493.09;1714120;84;21015;-54
2022/02/02 01:43:43;;;;;;;22.62;11.10;;;;;;;-3.25;68.91;141486.89;1735911;83;21011;-51
2022/02/02 01:46:09;;;;;;;23.18;10.82;;;;;;;-3.29;68.98;141478.19;1735450;81;21018;-53
2022/02/02 01:48:48;;;;;;;23.07;9.15;;;;;;;-3.36;69.09;141460.88;1735853;83;21038;-54
2022/02/02 01:53:58;;;;;;;21.50;10.00;;;;;;;-3.42;69.21;141445.98;1736216;83;21588;-53
2022/02/02 01:56:19;;;;;;;24.82;10.03;;;;;;;-3.43;69.26;141442.30;1735263;83;21022;-54
2022/02/02 01:59:22;;;;;;;21.05;9.38;;;;;;;-3.44;69.24;141441.03;1735781;83;21011;-52
2022/02/02 02:01:33;;;;;;;24.35;11.10;;;;;;;-3.44;69.19;141441.03;1710206;84;21011;-52
2022/02/02 02:04:00;;;;;;;25.80;10.98;;;;;;;-3.47;69.14;141432.38;1736222;81;21039;-51
2022/02/02 02:06:28;;;;;;;22.82;10.32;;;;;;;-3.51;69.17;141424.94;1736267;81;21042;-53
2022/02/02 02:08:55;;;;;;;21.50;9.35;;;;;;;-3.55;69.17;141415.02;1736253;83;21074;-52
2022/02/02 02:11:23;;;;;;;22.80;10.38;;;;;;;-3.56;69.19;141411.28;1736343;81;21082;-53
2022/02/02 02:16:31;;;;;;;20.00;10.55;;;;;;;-3.61;69.29;141400.17;1736469;81;21024;-54
2022/02/02 02:18:58;;;;;;;26.52;11.57;;;;;;;-3.64;69.31;141391.47;1736474;83;21477;-54
2022/02/02 02:21:26;;;;;;;19.77;10.78;;;;;;;-3.64;69.34;141391.47;1736517;83;21074;-51
2022/02/02 02:23:53;;;;;;;33.98;11.70;;;;;;;-3.67;69.39;141384.05;1736172;83;21023;-53
2022/02/02 02:26:24;;;;;;;27.82;11.90;;;;;;;-3.72;69.41;141374.13;1736409;83;21090;-54
2022/02/02 02:31:53;;;;;;;27.98;10.25;;;;;;;-3.75;69.39;141365.47;1725126;83;21047;-52
2022/02/02 02:34:33;;;;;;;26.62;11.95;;;;;;;-3.81;69.48;141350.63;1726853;83;21027;-54
2022/02/02 03:31:37;;;;;;;25.62;9.48;;;;;;;-4.01;69.01;141303.55;1700830;84;21133;-53
2022/02/02 03:53:38;;;;;;;22.95;8.63;;;;;;;-3.96;68.74;141314.70;1756718;81;20955;-52
2022/02/02 03:58:18;;;;;;;22.87;7.17;;;;;;;-3.96;68.68;141315.94;1756547;81;20995;-52
2022/02/02 04:03:42;;;;;;;17.62;7.97;;;;;;;-3.96;68.61;141315.94;1756520;82;21018;-53
2022/02/02 04:06:05;;;;;;;24.40;9.48;;;;;;;-3.97;68.63;141313.47;1753562;81;21070;-52
2022/02/02 04:08:28;;;;;;;17.37;7.75;;;;;;;-4.01;68.75;141302.31;1755292;81;21006;-54
2022/02/02 04:10:57;;;;;;;20.50;7.92;;;;;;;-4.02;68.80;141301.09;1756458;81;20995;-54
2022/02/02 04:17:02;;;;;;;20.27;8.70;;;;;;;-3.96;68.70;141314.70;1663509;85;21027;-55
2022/02/02 05:06:41;;;;;;;18.87;8.05;;;;;;;-4.22;69.40;141252.78;1756408;81;21038;-56
2022/02/02 05:15:05;;;;;;;15.15;7.30;;;;;;;-4.07;68.84;141287.42;1756586;81;20991;-54
2022/02/02 05:49:13;;;;;;;13.40;6.90;;;;;;;-3.76;67.93;141363.00;1746437;82;21018;-59
2022/02/02 05:51:36;;;;;;;18.00;7.65;;;;;;;-3.73;67.67;141371.66;1742685;82;21042;-59
2022/02/02 05:53:53;;;;;;;15.03;7.33;;;;;;;-3.69;67.66;141380.31;1747661;81;21579;-57
2022/02/02 05:56:20;;;;;;;16.30;7.33;;;;;;;-3.62;67.40;141396.44;1745960;80;21087;-57
2022/02/02 05:58:48;;;;;;;20.08;7.65;;;;;;;-3.61;67.38;141398.89;1755165;81;21037;-57
2022/02/02 06:01:18;;;;;;;20.77;8.38;;;;;;;-3.61;67.27;141400.17;1751896;79;21933;-59
2022/02/02 06:04:01;;;;;;;16.75;6.90;;;;;;;-3.57;67.23;141408.81;1758777;81;21745;-59
2022/02/02 06:06:27;;;;;;;18.52;7.25;;;;;;;-3.59;67.27;141405.09;1776888;81;21022;-60
2022/02/02 06:08:55;;;;;;;14.95;7.20;;;;;;;-3.55;67.25;141415.02;1757501;79;21046;-60
2022/02/02 06:11:25;;;;;;;19.40;8.28;;;;;;;-3.52;67.12;141422.44;1745831;81;21127;-60
2022/02/02 06:14:00;;;;;;;14.93;7.65;;;;;;;-3.43;66.80;141443.53;1761791;81;21073;-57
2022/02/02 06:16:26;;;;;;;15.80;7.35;;;;;;;-3.35;66.42;141462.11;1756044;80;21533;-59
2022/02/02 06:18:55;;;;;;;18.87;8.40;;;;;;;-3.30;66.24;141475.73;1736966;81;21521;-57
2022/02/02 06:21:35;;;;;;;15.78;6.92;;;;;;;-3.22;65.78;141493.09;1688225;84;21516;-57
2022/02/02 06:24:12;;;;;;;15.23;7.80;;;;;;;-3.13;65.31;141515.38;1736899;80;21061;-58
2022/02/02 06:26:47;;;;;;;16.50;6.72;;;;;;;-3.12;65.22;141517.88;1736548;81;21044;-59
2022/02/02 06:29:15;;;;;;;13.30;5.87;;;;;;;-3.06;65.03;141532.73;1739106;81;21076;-58
2022/02/02 06:31:43;;;;;;;16.27;6.85;;;;;;;-3.01;64.92;141543.89;1729764;81;21134;-56
2022/02/02 06:34:13;;;;;;;18.60;7.90;;;;;;;-3.01;65.16;141545.12;1732309;82;21042;-58
2022/02/02 06:36:41;;;;;;;16.87;7.87;;;;;;;-2.93;65.17;141564.95;1726906;82;21082;-56
2022/02/02 06:39:12;;;;;;;15.58;6.72;;;;;;;-2.84;64.95;141587.28;1746695;82;21102;-59
2022/02/02 06:41:40;;;;;;;13.95;6.42;;;;;;;-2.76;64.79;141604.66;1726779;82;20988;-59
2022/02/02 06:44:07;;;;;;;14.68;7.30;;;;;;;-2.56;64.61;141654.23;1736607;82;20968;-58
2022/02/02 06:46:38;;;;;;;15.93;7.15;;;;;;;-2.35;63.88;141705.08;1727038;81;21083;-56
2022/02/02 06:49:03;;;;;;;15.78;7.37;;;;;;;-2.32;63.84;141711.28;1752333;80;21082;-58
2022/02/02 06:51:41;;;;;;;19.55;8.23;;;;;;;-2.19;63.87;141743.52;1741688;82;21194;-56
2022/02/02 06:54:27;;;;;;;15.28;7.37;;;;;;;-1.87;63.25;141820.47;1733810;82;21512;-58
2022/02/02 06:57:04;;;;;;;18.82;7.80;;;;;;;-1.65;62.75;141875.08;1742418;82;21082;-58
2022/02/02 06:59:51;;;;;;;17.95;8.05;;;;;;;-1.32;62.23;141954.52;1748490;82;21080;-60
2022/02/02 07:08:27;;;;;;;18.77;9.75;;;;;;;-0.56;60.86;142139.56;1746947;80;21126;-59
2022/02/02 07:11:03;;;;;;;21.73;9.43;;;;;;;-0.40;60.27;142178.06;1701273;82;21552;-62
2022/02/02 07:13:36;;;;;;;20.68;10.28;;;;;;;-0.31;60.12;142200.41;1733708;80;21121;-58
2022/02/02 07:18:51;;;;;;;26.73;10.80;;;;;;;-0.27;60.15;142210.36;1732673;82;21076;-58
2022/02/02 07:24:06;;;;;;;24.98;11.35;;;;;;;-0.69;61.24;142108.50;1750471;82;21003;-56
2022/02/02 07:26:50;;;;;;;22.90;10.48;;;;;;;-0.75;62.06;142093.56;1735514;80;21130;-58
2022/02/02 07:29:07;;;;;;;22.80;10.90;;;;;;;-0.57;61.87;142135.81;1728973;82;21001;-57
2022/02/02 07:31:51;;;;;;;23.65;11.30;;;;;;;-0.40;61.66;142178.06;1751026;81;21094;-56
2022/02/02 07:34:47;;;;;;;28.12;11.10;;;;;;;-0.31;61.87;142200.41;1728147;82;21074;-56
2022/02/02 07:37:15;;;;;;;26.93;12.20;;;;;;;-0.14;61.27;142241.44;1737353;82;21082;-57
2022/02/02 07:39:42;;;;;;;24.32;12.43;;;;;;;-0.13;61.32;142242.66;1745827;82;21074;-59
2022/02/02 07:42:11;;;;;;;27.37;12.60;;;;;;;0.00;61.54;142275.02;1731423;82;21034;-57
2022/02/02 07:44:41;;;;;;;22.37;11.25;;;;;;;0.27;60.96;142339.63;1749138;82;21054;-56
2022/02/02 07:47:11;;;;;;;26.45;10.45;;;;;;;0.41;60.39;142374.47;1754632;82;21061;-58
2022/02/02 07:49:42;;;;;;;22.77;10.55;;;;;;;0.52;60.65;142401.80;1728288;82;21440;-57
2022/02/02 07:52:10;;;;;;;22.05;10.78;;;;;;;0.51;60.00;142399.33;1754122;82;21537;-56
2022/02/02 07:54:40;;;;;;;17.67;9.75;;;;;;;0.59;60.32;142417.98;1729492;82;21034;-58
2022/02/02 07:57:16;;;;;;;33.10;11.10;;;;;;;0.81;59.73;142471.44;1749044;82;21154;-57
2022/02/02 07:59:59;;;;;;;27.02;10.60;;;;;;;0.69;59.83;142441.58;1726394;82;21062;-60
2022/02/02 08:05:13;;;;;;;25.05;11.15;;;;;;;0.70;59.77;142444.09;1726452;82;21091;-57
2022/02/02 08:07:46;;;;;;;33.38;12.73;;;;;;;0.73;59.73;142451.53;1746907;80;21140;-56
2022/02/02 08:10:19;;;;;;;22.60;11.25;;;;;;;0.74;60.03;142454.02;1720156;82;21082;-58
2022/02/02 08:13:00;;;;;;;29.40;12.75;;;;;;;0.69;59.78;142442.86;1745859;80;20995;-58
2022/02/02 08:15:29;;;;;;;28.92;11.83;;;;;;;0.45;60.60;142384.38;1750205;82;21112;-56
2022/02/02 08:17:55;;;;;;;28.15;12.53;;;;;;;0.29;61.24;142344.61;1746042;80;21039;-58
2022/02/02 08:20:25;;;;;;;24.50;12.85;;;;;;;0.26;61.34;142337.16;1738893;82;21070;-55
2022/02/02 08:22:52;;;;;;;23.35;11.45;;;;;;;0.33;61.39;142355.81;1747256;82;21015;-55
2022/02/02 08:25:26;;;;;;;30.43;12.07;;;;;;;0.18;61.61;142319.75;1726632;82;21078;-57
2022/02/02 08:27:49;;;;;;;25.70;11.83;;;;;;;0.07;62.22;142292.37;1742378;82;21584;-55
2022/02/02 08:30:18;;;;;;;29.57;13.25;;;;;;;0.07;62.37;142292.37;1730402;80;21074;-58
2022/02/02 08:32:57;;;;;;;24.80;12.47;;;;;;;0.13;62.38;142307.31;1744507;82;21584;-57
2022/02/02 08:35:22;;;;;;;32.05;14.28;;;;;;;-0.13;62.96;142242.66;1738205;80;20995;-57
2022/02/02 08:40:30;;;;;;;28.23;13.40;;;;;;;-0.18;63.60;142231.47;1715116;82;21092;-58
2022/02/02 08:42:55;;;;;;;26.45;12.53;;;;;;;-0.38;64.26;142183.05;1729940;82;21094;-58
2022/02/02 08:45:28;;;;;;;30.72;13.48;;;;;;;-0.53;64.75;142145.77;1753875;82;21172;-58
2022/02/02 08:48:02;;;;;;;32.13;14.68;;;;;;;-0.56;65.42;142138.28;1732185;80;21159;-57
2022/02/02 08:51:10;;;;;;;27.15;12.00;;;;;;;-0.48;65.71;142159.44;1735645;82;21012;-58
2022/02/02 08:53:02;;;;;;;;;;;;;;;-0.33;65.63;142195.47;1724088;82;21564;-55
2022/02/02 08:55:52;;;;;;;27.82;11.90;;;;;;;-0.16;65.51;142235.22;1753628;82;20426;-59
2022/02/02 08:58:19;;;;;;;29.85;13.78;;;;;;;-0.04;65.16;142265.05;1743314;82;21055;-57
2022/02/02 09:00:35;;;;;;;29.50;12.78;;;;;;;-0.13;65.38;142242.66;1697592;83;21088;-55
2022/02/02 09:05:45;;;;;;;23.38;10.82;;;;;;;-0.35;66.28;142190.50;1717692;83;21094;-59
2022/02/02 09:08:13;;;;;;;27.98;11.95;;;;;;;-0.33;66.90;142195.47;1708659;83;21028;-55
2022/02/02 09:23:04;;;;;;;25.85;13.60;;;;;;;0.88;64.50;142488.86;1728498;82;21093;-59
2022/02/02 09:24:23;;;;;;;31.00;12.05;;;;;;;0.72;64.79;142450.31;1737172;82;21113;-54
2022/02/02 09:34:46;;;;;;;30.80;13.15;;;;;;;0.73;65.41;142452.78;1766414;80;21015;-54
2022/02/02 09:37:12;;;;;;;30.97;15.00;;;;;;;0.82;65.32;142473.95;1757990;80;21091;-55
2022/02/02 09:39:46;;;;;;;35.08;15.10;;;;;;;0.95;65.01;142505.05;1771269;80;21074;-56
2022/02/02 09:42:19;;;;;;;31.48;15.60;;;;;;;0.94;64.91;142503.81;1783096;80;21135;-54
2022/02/02 09:44:43;;;;;;;28.07;15.25;;;;;;;0.97;65.07;142511.27;1775848;80;21003;-55
2022/02/02 09:47:24;;;;;;;29.07;15.93;;;;;;;1.08;65.05;142538.62;1777262;80;21017;-54
2022/02/02 09:49:49;;;;;;;31.73;13.22;;;;;;;1.09;64.96;142539.84;1753270;80;21065;-54
2022/02/02 09:52:14;;;;;;;26.57;12.43;;;;;;;1.14;65.27;142551.06;1755564;80;21061;-55
2022/02/02 09:54:51;;;;;;;22.60;12.55;;;;;;;1.21;64.92;142568.48;1783526;80;21050;-56
2022/02/02 10:05:10;;;;;;;24.92;12.80;;;;;;;1.02;66.05;142523.70;1784355;80;21051;-55
2022/02/02 10:13:20;;;;;;;21.95;11.15;;;;;;;1.19;66.17;142564.73;1771377;80;20142;-56
2022/02/02 10:15:53;;;;;;;21.75;10.85;;;;;;;1.20;66.17;142567.25;1776760;80;20979;-55
2022/02/02 10:18:22;;;;;;;26.20;11.03;;;;;;;1.22;66.06;142570.95;1767601;80;21030;-54
2022/02/02 10:20:51;;;;;;;27.55;11.57;;;;;;;1.19;66.53;142564.73;1772641;80;21113;-53
2022/02/02 10:23:30;;;;;;;24.07;11.57;;;;;;;1.26;66.37;142582.16;1768325;80;21490;-54
2022/02/02 10:26:18;;;;;;;34.85;11.15;;;;;;;1.44;66.17;142625.72;1778132;80;21031;-54
2022/02/02 10:28:47;;;;;;;26.52;12.13;;;;;;;1.63;65.79;142671.80;1757717;80;21051;-56
2022/02/02 10:31:15;;;;;;;26.68;10.78;;;;;;;1.64;65.37;142673.03;1777487;80;21108;-54
2022/02/02 10:33:42;;;;;;;30.43;11.33;;;;;;;1.61;65.51;142666.81;1728098;81;21030;-54
2022/02/02 10:36:19;;;;;;;26.10;10.85;;;;;;;1.52;65.87;142645.63;1765149;79;21022;-54
2022/02/02 10:38:49;;;;;;;21.10;10.40;;;;;;;1.48;66.20;142635.69;1750867;81;21137;-55
2022/02/02 10:43:51;;;;;;;22.42;9.93;;;;;;;1.29;67.32;142589.62;1755929;81;21014;-55
2022/02/02 11:00:03;;;;;;;21.68;10.48;;;;;;;1.67;67.74;142681.72;1733954;81;21106;-56
2022/02/02 11:07:59;;;;;;;25.75;10.85;;;;;;;1.69;67.43;142685.47;1771346;81;21643;-55
2022/02/02 11:10:30;;;;;;;24.55;10.80;;;;;;;1.62;67.90;142669.28;1767451;81;21018;-57
2022/02/02 11:12:57;;;;;;;21.05;9.00;;;;;;;1.59;68.14;142660.58;1776229;81;21099;-57
2022/02/02 11:15:52;;;;;;;20.50;9.53;;;;;;;1.59;68.02;142660.58;1750584;81;21014;-54
2022/02/02 11:18:40;;;;;;;29.40;11.18;;;;;;;1.62;68.39;142668.05;1757065;81;21039;-54
2022/02/02 11:21:09;;;;;;;28.87;12.55;;;;;;;1.51;69.05;142643.16;1766210;81;21544;-55
2022/02/02 11:23:54;;;;;;;20.30;9.23;;;;;;;1.60;69.13;142663.06;1761192;81;21080;-59
2022/02/02 11:26:47;;;;;;;23.15;10.98;;;;;;;1.59;69.23;142660.58;1776228;79;22210;-57
2022/02/02 11:29:43;;;;;;;22.55;10.45;;;;;;;1.58;69.52;142659.34;1765224;81;21022;-55
2022/02/02 11:32:13;;;;;;;23.92;10.75;;;;;;;1.73;69.42;142695.41;1682954;84;21117;-55
2022/02/02 11:34:41;;;;;;;27.27;10.65;;;;;;;1.76;69.37;142702.92;1692381;84;21137;-58
2022/02/02 11:37:09;;;;;;;26.02;12.03;;;;;;;1.81;69.31;142714.12;1763343;81;21023;-57
2022/02/02 11:42:54;;;;;;;26.77;11.65;;;;;;;1.69;69.82;142685.47;1765405;81;21089;-58
2022/02/02 11:45:36;;;;;;;24.75;11.78;;;;;;;1.57;70.54;142655.59;1740740;81;21054;-58
2022/02/02 11:48:09;;;;;;;24.80;11.20;;;;;;;1.41;71.37;142618.25;1735558;81;21066;-56
2022/02/02 11:50:53;;;;;;;27.87;12.18;;;;;;;1.48;71.57;142635.69;1738405;81;21089;-54
2022/02/02 11:53:52;;;;;;;21.80;11.50;;;;;;;1.57;71.66;142655.59;1764349;81;21646;-59
2022/02/02 11:56:19;;;;;;;22.00;11.10;;;;;;;1.49;72.10;142638.16;1720278;81;21082;-58
2022/02/02 11:58:46;;;;;;;22.58;11.78;;;;;;;1.37;72.96;142608.28;1736858;81;21089;-55
2022/02/02 12:01:26;;;;;;;20.55;10.35;;;;;;;1.36;73.41;142605.81;1736894;81;21086;-61
2022/02/02 12:04:07;;;;;;;25.70;12.50;;;;;;;1.44;73.48;142625.72;1750791;81;21003;-60
2022/02/02 12:06:42;;;;;;;23.62;11.38;;;;;;;1.60;73.15;142664.30;1737873;81;21599;-54
2022/02/02 12:09:08;;;;;;;28.20;11.83;;;;;;;1.78;72.39;142707.91;1750638;81;21533;-58
2022/02/02 12:58:04;;;;;;;27.45;12.03;;;;;;;2.17;72.25;142803.77;1751589;80;21070;-52
2022/02/02 13:03:06;;;;;;;22.40;10.48;;;;;;;2.09;72.37;142782.61;1730482;81;21106;-52
2022/02/02 13:05:40;;;;;;;24.15;11.15;;;;;;;1.93;73.04;142745.25;1712635;83;21106;-52
2022/02/02 13:08:08;;;;;;;27.20;11.18;;;;;;;1.81;73.67;142715.38;1729547;82;21137;-52
2022/02/02 13:10:38;;;;;;;23.83;11.40;;;;;;;1.74;74.19;142699.16;1714832;83;21028;-53
2022/02/02 13:13:14;;;;;;;26.93;12.37;;;;;;;1.78;74.44;142707.91;1747045;80;22114;-53
2022/02/02 13:15:53;;;;;;;25.72;11.05;;;;;;;1.72;74.76;142692.94;1786085;80;21066;-52
2022/02/02 13:18:38;;;;;;;21.85;9.70;;;;;;;1.65;75.20;142675.50;1785414;80;21054;-53
2022/02/02 13:21:29;;;;;;;30.37;11.38;;;;;;;1.60;75.59;142664.30;1775633;80;21015;-52
2022/02/02 13:26:44;;;;;;;24.87;12.53;;;;;;;1.60;76.12;142664.30;1762087;80;21017;-52
2022/02/02 13:29:26;;;;;;;27.32;11.97;;;;;;;1.60;76.12;142664.30;1761567;80;20990;-52
2022/02/02 13:37:54;;;;;;;28.40;14.90;;;;;;;1.53;76.67;142646.91;1756626;80;21018;-51
2022/02/02 13:54:14;;;;;;;26.40;12.53;;;;;;;1.36;78.30;142605.81;1784097;80;21312;-54
2022/02/02 13:59:55;;;;;;;30.08;13.72;;;;;;;1.25;79.35;142578.47;1763676;80;20984;-53
2022/02/02 14:02:12;;;;;;;26.97;13.65;;;;;;;1.29;79.65;142588.39;1763491;80;21097;-53
2022/02/02 14:31:16;;;;;;;25.35;12.00;;;;;;;1.00;82.59;142517.48;1770048;80;20971;-53
2022/02/02 14:33:46;;;;;;;30.52;13.35;;;;;;;0.94;83.02;142502.53;1770128;80;21047;-53
2022/02/02 14:36:17;;;;;;;24.10;12.95;;;;;;;0.90;83.61;142493.84;1765341;80;21535;-52
2022/02/02 14:38:49;;;;;;;26.87;13.05;;;;;;;0.89;83.82;142491.38;1781511;80;21003;-52
2022/02/02 14:41:27;;;;;;;26.77;12.20;;;;;;;0.86;84.00;142483.88;1767419;80;22256;-53
2022/02/02 14:46:27;;;;;;;24.05;11.57;;;;;;;0.91;84.16;142495.08;1768231;80;21050;-53
2022/02/02 14:48:54;;;;;;;31.12;14.15;;;;;;;0.84;84.53;142478.89;1761887;80;21037;-54
2022/02/02 14:51:30;;;;;;;28.12;12.07;;;;;;;0.83;84.62;142476.42;1762121;80;21497;-53
2022/02/02 14:54:07;;;;;;;25.48;12.18;;;;;;;0.82;84.93;142473.95;1755274;80;21500;-53
2022/02/02 15:09:00;;;;;;;26.93;13.03;;;;;;;0.79;85.49;142466.45;1781481;79;21007;-62
2022/02/02 15:28:49;;;;;;;25.80;12.70;;;;;;;0.60;87.20;142421.69;1743803;82;21022;-60
2022/02/02 15:31:16;;;;;;;30.37;13.65;;;;;;;0.61;87.33;142422.92;1752931;81;21014;-61
2022/02/02 15:33:46;;;;;;;24.60;12.93;;;;;;;0.55;87.82;142409.25;1746336;82;21480;-59
2022/02/02 15:38:53;;;;;;;31.10;13.83;;;;;;;0.48;88.41;142391.83;1760822;81;21547;-62
2022/02/02 15:41:30;;;;;;;29.18;12.75;;;;;;;0.48;88.70;142391.83;1747315;81;21098;-60
2022/02/02 15:45:01;;;;;;;26.90;13.45;;;;;;;0.49;88.75;142394.34;1744924;81;21085;-63
2022/02/02 15:54:56;;;;;;;27.65;13.50;;;;;;;0.52;89.18;142400.56;1743737;81;21067;-61
2022/02/02 16:02:39;;;;;;;29.40;14.00;;;;;;;0.55;89.34;142409.25;1765645;80;21186;-62
2022/02/02 16:04:58;;;;;;;29.57;14.63;;;;;;;0.54;89.40;142406.78;1787144;80;21559;-60
2022/02/02 16:07:28;;;;;;;31.15;13.75;;;;;;;0.51;89.50;142399.33;1794797;80;21159;-58
2022/02/02 16:10:03;;;;;;;31.73;12.93;;;;;;;0.49;89.67;142394.34;1792600;80;21086;-54
2022/02/02 16:12:27;;;;;;;26.57;14.05;;;;;;;0.50;89.82;142395.58;1790166;80;21062;-54
2022/02/02 16:15:16;;;;;;;26.45;13.60;;;;;;;0.50;89.93;142396.81;1773293;80;21037;-52
2022/02/02 16:17:42;;;;;;;31.02;14.40;;;;;;;0.51;90.04;142398.05;1770224;80;21069;-54
2022/02/02 16:36:32;;;;;;;31.45;16.52;;;;;;;0.38;91.45;142366.97;1767205;80;21037;-52
2022/02/02 16:39:08;;;;;;;38.00;16.50;;;;;;;0.41;91.45;142374.47;1780850;80;21108;-55
2022/02/02 16:44:11;;;;;;;32.35;15.13;;;;;;;0.36;91.78;142363.27;1776546;80;21038;-53
2022/02/02 16:46:38;;;;;;;30.12;14.83;;;;;;;0.36;92.02;142362.03;1795235;80;21496;-53
2022/02/02 16:49:05;;;;;;;35.43;15.40;;;;;;;0.35;92.06;142359.52;1792733;80;21536;-53
2022/02/02 16:51:32;;;;;;;34.98;16.87;;;;;;;0.35;92.25;142359.52;1781720;80;21050;-53
2022/02/02 16:54:01;;;;;;;34.05;16.07;;;;;;;0.36;92.26;142363.27;1785429;80;21175;-52
2022/02/02 17:34:42;;;;;;;33.60;15.98;;;;;;;0.36;93.30;142362.03;1708501;82;21020;-53
2022/02/02 17:39:56;;;;;;;30.08;15.28;;;;;;;0.37;93.25;142364.50;1784483;80;21093;-57
2022/02/02 17:42:31;;;;;;;33.48;16.62;;;;;;;0.38;93.29;142366.97;1777965;80;21054;-57
2022/02/02 17:44:58;;;;;;;35.83;16.95;;;;;;;0.38;93.29;142368.25;1761765;80;21054;-61
2022/02/02 17:59:06;;;;;;;37.45;19.15;;;;;;;0.70;91.96;142444.09;1760712;80;20967;-58
2022/02/02 18:01:24;;;;;;;35.30;16.53;;;;;;;0.69;91.80;142441.58;1779754;80;20995;-57
2022/02/02 18:03:51;;;;;;;39.15;18.20;;;;;;;0.71;91.70;142446.56;1746028;80;21325;-58
2022/02/02 18:19:18;;;;;;;38.20;18.52;;;;;;;0.94;90.32;142503.81;1761481;80;22436;-60
2022/02/02 18:21:46;;;;;;;33.63;17.32;;;;;;;0.96;90.15;142508.75;1786194;80;21058;-61
2022/02/02 18:24:22;;;;;;;35.90;17.23;;;;;;;0.94;90.29;142503.81;1773136;80;21000;-59
2022/02/02 18:27:00;;;;;;;37.25;18.60;;;;;;;0.94;90.42;142503.81;1785446;80;21087;-62
2022/02/02 18:30:30;;;;;;;33.58;17.95;;;;;;;0.95;90.43;142506.28;1757148;80;20996;-57
2022/02/02 18:32:11;;;;;;;34.55;18.12;;;;;;;0.90;90.62;142492.61;1714020;83;21053;-56
2022/02/02 18:34:44;;;;;;;37.42;17.65;;;;;;;0.92;90.78;142497.59;1765449;80;20992;-60
2022/02/02 18:47:39;;;;;;;37.40;16.80;;;;;;;0.91;91.24;142496.31;1756849;80;21071;-59
2022/02/02 18:58:40;;;;;;;38.33;18.97;;;;;;;0.89;91.29;142491.38;1766018;80;21559;-60
2022/02/02 19:00:23;;;;;;;34.18;16.77;;;;;;;0.91;91.46;142495.08;1738041;80;21567;-57
2022/02/02 19:02:59;;;;;;;39.25;18.00;;;;;;;0.89;91.48;142491.38;1753690;80;21065;-59
2022/02/02 19:05:28;;;;;;;36.53;17.42;;;;;;;0.81;91.92;142471.44;1771826;80;20992;-57
2022/02/02 19:31:03;;;;;;;39.60;18.05;;;;;;;0.70;93.50;142444.09;1772980;80;21114;-60
2022/02/02 19:37:19;;;;;;;34.95;17.37;;;;;;;0.92;92.80;142498.83;1759249;80;21451;-54
2022/02/02 19:37:24;;;;;;;35.65;16.67;;;;;;;0.95;92.48;142505.05;1719470;83;21614;-53
2022/02/02 19:53:59;;;;;;;39.08;16.52;;;;;;;0.97;92.83;142511.27;1775754;80;21059;-52
2022/02/02 20:11:26;;;;;;;36.63;17.73;;;;;;;1.17;92.43;142559.80;1737859;80;21135;-52
2022/02/02 20:13:52;;;;;;;33.08;18.67;;;;;;;1.18;92.07;142562.27;1777117;80;21025;-53
2022/02/02 20:16:21;;;;;;;39.05;19.17;;;;;;;1.23;92.02;142573.47;1757195;80;21041;-53
2022/02/02 20:18:53;;;;;;;39.38;19.15;;;;;;;1.30;91.95;142590.91;1784581;80;21007;-52
2022/02/02 20:21:22;;;;;;;33.92;19.07;;;;;;;1.37;91.72;142607.05;1773162;80;21096;-53
2022/02/02 20:23:49;;;;;;;38.17;20.25;;;;;;;1.43;91.41;142623.25;1782086;80;21007;-52
2022/02/02 20:26:21;;;;;;;40.70;20.68;;;;;;;1.44;90.88;142625.72;1767867;80;20995;-52
2022/02/02 20:28:46;;;;;;;35.98;18.87;;;;;;;1.42;90.80;142619.50;1762391;80;21517;-55
2022/02/02 20:31:15;;;;;;;47.30;24.20;;;;;;;1.44;90.86;142624.48;1765904;80;21314;-54
2022/02/02 20:33:42;;;;;;;38.17;20.15;;;;;;;1.51;91.14;142643.16;1760697;80;21521;-52
2022/02/02 20:36:12;;;;;;;39.85;20.15;;;;;;;1.47;90.39;142633.17;1790290;80;21034;-53
2022/02/02 20:38:39;;;;;;;40.67;19.60;;;;;;;1.44;90.60;142625.72;1788750;80;21046;-53
2022/02/02 20:41:06;;;;;;;39.53;18.98;;;;;;;1.46;90.36;142629.47;1788524;79;21179;-54
2022/02/02 20:43:44;;;;;;;33.50;18.02;;;;;;;1.44;90.11;142625.72;1787866;80;20995;-54
2022/02/02 21:08:42;;;;;;;36.30;18.95;;;;;;;1.46;89.23;142630.70;1769067;80;21519;-53
2022/02/02 21:10:12;;;;;;;33.90;19.65;;;;;;;1.45;89.53;142628.23;1764728;80;21058;-53
2022/02/02 21:15:27;;;;;;;40.60;20.80;;;;;;;1.27;90.34;142584.69;1766918;80;21493;-53
2022/02/02 21:17:51;;;;;;;35.85;18.48;;;;;;;1.28;90.51;142587.16;1766093;80;20990;-54
2022/02/02 21:20:28;;;;;;;35.73;16.67;;;;;;;1.29;90.73;142588.39;1766816;80;20971;-53
2022/02/02 21:23:02;;;;;;;;;;;;;;;1.23;91.08;142573.47;1769854;80;21105;-52
2022/02/02 21:27:58;;;;;;;36.83;19.65;;;;;;;1.12;91.80;142547.36;1763803;80;21029;-54
2022/02/02 21:30:26;;;;;;;37.55;19.00;;;;;;;1.14;91.93;142551.06;1763359;81;21046;-54
2022/02/02 21:32:53;;;;;;;40.92;18.45;;;;;;;1.19;91.99;142564.73;1763777;81;21095;-54
2022/02/02 21:35:20;;;;;;;33.15;17.35;;;;;;;1.22;92.04;142570.95;1758833;80;20973;-53
2022/02/02 21:37:49;;;;;;;35.55;18.37;;;;;;;1.20;92.18;142566.02;1758210;81;21004;-53
2022/02/02 21:40:23;;;;;;;42.10;19.70;;;;;;;1.24;92.39;142575.94;1756795;81;21005;-53
2022/02/02 21:42:47;;;;;;;35.20;18.17;;;;;;;1.23;92.26;142574.70;1753370;82;21064;-54